sensor_id;sensor_type;location;lat;lon;timestamp;pressure;altitude;pressure_sealevel;temperature;humidity
42169;BME280;27838;43.858;25.974;2023-05-12T00:02:10;101629.41;;;13.61;52.43
42169;BME280;27838;43.858;25.974;2023-05-12T00:04:36;101646.91;;;13.62;52.70
42169;BME280;27838;43.858;25.974;2023-05-12T00:07:04;101638.16;;;13.57;52.78
42169;BME280;27838;43.858;25.974;2023-05-12T00:09:31;101645.13;;;13.52;52.88
42169;BME280;27838;43.858;25.974;2023-05-12T00:11:58;101650.38;;;13.52;53.05
42169;BME280;27838;43.858;25.974;2023-05-12T00:14:25;101642.50;;;13.49;52.89
42169;BME280;27838;43.858;25.974;2023-05-12T00:16:51;101653.84;;;13.48;52.83
42169;BME280;27838;43.858;25.974;2023-05-12T00:19:18;101632.88;;;13.34;53.04
42169;BME280;27838;43.858;25.974;2023-05-12T00:21:45;101648.59;;;13.38;53.14
42169;BME280;27838;43.858;25.974;2023-05-12T00:24:13;101645.91;;;13.29;53.00
42169;BME280;27838;43.858;25.974;2023-05-12T00:26:40;101653.75;;;13.29;53.23
42169;BME280;27838;43.858;25.974;2023-05-12T00:29:06;101641.50;;;13.19;53.29
42169;BME280;27838;43.858;25.974;2023-05-12T00:31:33;101651.13;;;13.25;53.44
42169;BME280;27838;43.858;25.974;2023-05-12T00:34:00;101652.00;;;13.23;53.22
42169;BME280;27838;43.858;25.974;2023-05-12T00:36:26;101645.00;;;13.21;53.06
42169;BME280;27838;43.858;25.974;2023-05-12T00:38:53;101640.59;;;13.15;52.92
42169;BME280;27838;43.858;25.974;2023-05-12T00:41:20;101640.59;;;13.11;53.13
42169;BME280;27838;43.858;25.974;2023-05-12T00:43:47;101649.34;;;13.16;52.81
42169;BME280;27838;43.858;25.974;2023-05-12T00:46:13;101651.09;;;13.12;53.23
42169;BME280;27838;43.858;25.974;2023-05-12T00:48:40;101648.47;;;13.11;53.08
42169;BME280;27838;43.858;25.974;2023-05-12T00:51:07;101650.13;;;12.99;53.15
42169;BME280;27838;43.858;25.974;2023-05-12T00:53:34;101650.13;;;12.95;53.30
42169;BME280;27838;43.858;25.974;2023-05-12T00:56:01;101657.97;;;12.92;53.37
42169;BME280;27838;43.858;25.974;2023-05-12T00:58:27;101647.44;;;12.79;53.44
42169;BME280;27838;43.858;25.974;2023-05-12T01:00:54;101661.44;;;12.86;53.46
42169;BME280;27838;43.858;25.974;2023-05-12T01:03:21;101657.88;;;12.82;53.38
42169;BME280;27838;43.858;25.974;2023-05-12T01:08:43;101655.25;;;12.75;53.50
42169;BME280;27838;43.858;25.974;2023-05-12T01:11:09;101650.88;;;12.71;53.17
42169;BME280;27838;43.858;25.974;2023-05-12T01:13:36;101659.53;;;12.66;53.64
42169;BME280;27838;43.858;25.974;2023-05-12T01:16:04;101662.16;;;12.63;53.36
42169;BME280;27838;43.858;25.974;2023-05-12T01:18:34;101655.19;;;12.64;53.56
42169;BME280;27838;43.858;25.974;2023-05-12T01:21:02;101642.88;;;12.49;53.74
42169;BME280;27838;43.858;25.974;2023-05-12T01:23:41;101656.91;;;12.60;53.58
42169;BME280;27838;43.858;25.974;2023-05-12T01:26:10;101656.88;;;12.59;53.42
42169;BME280;27838;43.858;25.974;2023-05-12T01:28:38;101659.50;;;12.59;53.60
42169;BME280;27838;43.858;25.974;2023-05-12T01:31:06;101648.94;;;12.43;53.96
42169;BME280;27838;43.858;25.974;2023-05-12T01:33:34;101650.63;;;12.37;54.27
42169;BME280;27838;43.858;25.974;2023-05-12T01:36:01;101663.69;;;12.35;54.35
42169;BME280;27838;43.858;25.974;2023-05-12T01:38:28;101657.56;;;12.28;54.71
42169;BME280;27838;43.858;25.974;2023-05-12T01:40:54;101656.63;;;12.23;55.08
42169;BME280;27838;43.858;25.974;2023-05-12T01:43:21;101653.94;;;12.16;55.31
42169;BME280;27838;43.858;25.974;2023-05-12T01:45:47;101654.84;;;12.15;55.43
42169;BME280;27838;43.858;25.974;2023-05-12T01:48:14;101652.22;;;12.18;55.24
42169;BME280;27838;43.858;25.974;2023-05-12T01:50:40;101644.34;;;12.13;55.45
42169;BME280;27838;43.858;25.974;2023-05-12T01:53:07;101650.41;;;12.11;55.64
42169;BME280;27838;43.858;25.974;2023-05-12T01:55:35;101652.13;;;12.05;55.46
42169;BME280;27838;43.858;25.974;2023-05-12T01:58:01;101653.84;;;12.03;55.53
42169;BME280;27838;43.858;25.974;2023-05-12T02:00:28;101650.31;;;11.95;55.63
42169;BME280;27838;43.858;25.974;2023-05-12T02:02:54;101651.13;;;11.93;55.85
42169;BME280;27838;43.858;25.974;2023-05-12T02:05:21;101649.38;;;11.92;56.03
42169;BME280;27838;43.858;25.974;2023-05-12T02:07:48;101646.72;;;11.87;56.47
42169;BME280;27838;43.858;25.974;2023-05-12T02:10:14;101645.91;;;11.93;55.98
42169;BME280;27838;43.858;25.974;2023-05-12T02:12:41;101643.31;;;11.94;56.08
42169;BME280;27838;43.858;25.974;2023-05-12T02:15:07;101645.09;;;11.95;56.02
42169;BME280;27838;43.858;25.974;2023-05-12T02:17:34;101645.94;;;11.94;56.18
42169;BME280;27838;43.858;25.974;2023-05-12T02:20:01;101647.69;;;11.97;56.28
42169;BME280;27838;43.858;25.974;2023-05-12T02:22:28;101647.72;;;12.00;56.25
42169;BME280;27838;43.858;25.974;2023-05-12T02:24:54;101649.47;;;12.01;56.22
42169;BME280;27838;43.858;25.974;2023-05-12T02:27:23;101652.91;;;11.97;56.36
42169;BME280;27838;43.858;25.974;2023-05-12T02:29:50;101646.88;;;12.02;56.69
42169;BME280;27838;43.858;25.974;2023-05-12T02:32:17;101651.19;;;12.00;56.52
42169;BME280;27838;43.858;25.974;2023-05-12T02:34:43;101651.25;;;12.06;56.70
42169;BME280;27838;43.858;25.974;2023-05-12T02:37:11;101644.25;;;12.01;56.93
42169;BME280;27838;43.858;25.974;2023-05-12T02:39:37;101650.28;;;11.97;57.20
42169;BME280;27838;43.858;25.974;2023-05-12T02:42:04;101644.22;;;11.98;57.15
42169;BME280;27838;43.858;25.974;2023-05-12T02:44:31;101646.84;;;11.99;57.32
42169;BME280;27838;43.858;25.974;2023-05-12T02:46:58;101648.66;;;12.08;57.13
42169;BME280;27838;43.858;25.974;2023-05-12T02:49:24;101646.91;;;12.08;57.13
42169;BME280;27838;43.858;25.974;2023-05-12T02:51:51;101652.19;;;12.12;57.26
42169;BME280;27838;43.858;25.974;2023-05-12T02:54:19;101665.19;;;12.07;57.39
42169;BME280;27838;43.858;25.974;2023-05-12T02:56:46;101660.00;;;12.08;57.69
42169;BME280;27838;43.858;25.974;2023-05-12T02:59:12;101663.47;;;12.07;57.96
42169;BME280;27838;43.858;25.974;2023-05-12T03:01:39;101657.38;;;12.08;58.05
42169;BME280;27838;43.858;25.974;2023-05-12T03:04:06;101666.94;;;12.05;58.03
42169;BME280;27838;43.858;25.974;2023-05-12T03:06:33;101663.47;;;12.09;57.98
42169;BME280;27838;43.858;25.974;2023-05-12T03:08:59;101665.25;;;12.13;57.98
42169;BME280;27838;43.858;25.974;2023-05-12T03:11:26;101677.47;;;12.16;58.32
42169;BME280;27838;43.858;25.974;2023-05-12T03:13:52;101666.97;;;12.08;58.17
42169;BME280;27838;43.858;25.974;2023-05-12T03:16:20;101674.78;;;12.06;58.15
42169;BME280;27838;43.858;25.974;2023-05-12T03:18:46;101673.81;;;11.97;58.54
42169;BME280;27838;43.858;25.974;2023-05-12T03:21:13;101675.59;;;11.99;58.94
42169;BME280;27838;43.858;25.974;2023-05-12T03:23:39;101680.84;;;12.01;58.72
42169;BME280;27838;43.858;25.974;2023-05-12T03:26:06;101687.81;;;12.03;58.78
42169;BME280;27838;43.858;25.974;2023-05-12T03:28:32;101672.94;;;11.95;58.89
42169;BME280;27838;43.858;25.974;2023-05-12T03:30:59;101688.63;;;11.98;59.02
42169;BME280;27838;43.858;25.974;2023-05-12T03:33:25;101694.69;;;11.92;59.26
42169;BME280;27838;43.858;25.974;2023-05-12T03:35:52;101698.09;;;11.89;59.62
42169;BME280;27838;43.858;25.974;2023-05-12T03:38:18;101687.63;;;11.86;59.65
42169;BME280;27838;43.858;25.974;2023-05-12T03:40:45;101694.66;;;11.90;59.92
42169;BME280;27838;43.858;25.974;2023-05-12T03:43:16;101684.25;;;11.97;59.78
42169;BME280;27838;43.858;25.974;2023-05-12T03:45:43;101694.78;;;12.03;59.81
42169;BME280;27838;43.858;25.974;2023-05-12T03:48:09;101693.13;;;12.09;59.82
42169;BME280;27838;43.858;25.974;2023-05-12T03:50:36;101695.78;;;12.17;59.70
42169;BME280;27838;43.858;25.974;2023-05-12T03:53:02;101692.34;;;12.24;59.92
42169;BME280;27838;43.858;25.974;2023-05-12T03:55:29;101688.00;;;12.26;59.85
42169;BME280;27838;43.858;25.974;2023-05-12T03:57:55;101694.16;;;12.28;59.96
42169;BME280;27838;43.858;25.974;2023-05-12T04:00:22;101697.72;;;12.41;59.52
42169;BME280;27838;43.858;25.974;2023-05-12T04:02:48;101698.63;;;12.45;59.65
42169;BME280;27838;43.858;25.974;2023-05-12T04:05:15;101706.53;;;12.50;59.59
42169;BME280;27838;43.858;25.974;2023-05-12T04:07:42;101701.28;;;12.48;59.10
42169;BME280;27838;43.858;25.974;2023-05-12T04:10:08;101709.16;;;12.54;58.63
42169;BME280;27838;43.858;25.974;2023-05-12T04:12:35;101705.69;;;12.55;58.53
42169;BME280;27838;43.858;25.974;2023-05-12T04:15:02;101713.50;;;12.54;58.91
42169;BME280;27838;43.858;25.974;2023-05-12T04:17:29;101707.38;;;12.50;58.66
42169;BME280;27838;43.858;25.974;2023-05-12T04:19:56;101697.81;;;12.54;58.65
42169;BME280;27838;43.858;25.974;2023-05-12T04:22:22;101710.97;;;12.63;59.03
42169;BME280;27838;43.858;25.974;2023-05-12T04:24:49;101709.25;;;12.66;59.24
42169;BME280;27838;43.858;25.974;2023-05-12T04:27:15;101720.63;;;12.72;59.26
42169;BME280;27838;43.858;25.974;2023-05-12T04:29:42;101718.91;;;12.75;59.85
42169;BME280;27838;43.858;25.974;2023-05-12T04:32:08;101711.94;;;12.79;60.21
42169;BME280;27838;43.858;25.974;2023-05-12T04:34:35;101724.22;;;12.86;60.09
42169;BME280;27838;43.858;25.974;2023-05-12T04:37:01;101718.06;;;12.82;60.79
42169;BME280;27838;43.858;25.974;2023-05-12T04:39:28;101720.69;;;12.81;61.20
42169;BME280;27838;43.858;25.974;2023-05-12T04:41:54;101703.16;;;12.68;62.21
42169;BME280;27838;43.858;25.974;2023-05-12T04:44:21;101719.81;;;12.82;62.27
42169;BME280;27838;43.858;25.974;2023-05-12T04:46:54;101726.00;;;12.93;62.19
42169;BME280;27838;43.858;25.974;2023-05-12T04:49:21;101722.56;;;13.00;62.42
42169;BME280;27838;43.858;25.974;2023-05-12T04:51:47;101733.03;;;13.00;62.41
42169;BME280;27838;43.858;25.974;2023-05-12T04:54:14;101735.66;;;13.03;62.99
42169;BME280;27838;43.858;25.974;2023-05-12T04:56:40;101712.97;;;13.02;62.79
42169;BME280;27838;43.858;25.974;2023-05-12T04:59:07;101725.25;;;13.19;62.54
42169;BME280;27838;43.858;25.974;2023-05-12T05:01:33;101732.25;;;13.17;62.96
42169;BME280;27838;43.858;25.974;2023-05-12T05:04:00;101732.28;;;13.25;62.81
42169;BME280;27838;43.858;25.974;2023-05-12T05:06:27;101733.16;;;13.27;62.16
42169;BME280;27838;43.858;25.974;2023-05-12T05:08:53;101737.59;;;13.32;61.61
42169;BME280;27838;43.858;25.974;2023-05-12T05:11:20;101743.69;;;13.33;61.60
42169;BME280;27838;43.858;25.974;2023-05-12T05:13:46;101739.28;;;13.30;60.89
42169;BME280;27838;43.858;25.974;2023-05-12T05:16:13;101737.53;;;13.29;60.89
42169;BME280;27838;43.858;25.974;2023-05-12T05:18:39;101741.91;;;13.30;61.40
42169;BME280;27838;43.858;25.974;2023-05-12T05:21:11;101741.06;;;13.30;61.18
42169;BME280;27838;43.858;25.974;2023-05-12T05:23:38;101754.16;;;13.33;61.73
42169;BME280;27838;43.858;25.974;2023-05-12T05:26:05;101747.97;;;13.26;62.12
42169;BME280;27838;43.858;25.974;2023-05-12T05:28:31;101756.78;;;13.34;62.03
42169;BME280;27838;43.858;25.974;2023-05-12T05:30:58;101748.09;;;13.35;62.00
42169;BME280;27838;43.858;25.974;2023-05-12T05:33:24;101756.84;;;13.47;61.53
42169;BME280;27838;43.858;25.974;2023-05-12T05:35:51;101762.13;;;13.53;61.37
42169;BME280;27838;43.858;25.974;2023-05-12T05:38:18;101756.03;;;13.58;61.03
42169;BME280;27838;43.858;25.974;2023-05-12T05:40:44;101759.56;;;13.64;60.86
42169;BME280;27838;43.858;25.974;2023-05-12T05:43:11;101770.91;;;13.67;60.94
42169;BME280;27838;43.858;25.974;2023-05-12T05:45:37;101767.44;;;13.71;60.75
42169;BME280;27838;43.858;25.974;2023-05-12T05:48:04;101761.31;;;13.69;61.18
42169;BME280;27838;43.858;25.974;2023-05-12T05:50:31;101762.22;;;13.74;61.19
42169;BME280;27838;43.858;25.974;2023-05-12T05:52:57;101762.22;;;13.77;61.67
42169;BME280;27838;43.858;25.974;2023-05-12T05:55:26;101764.00;;;13.85;61.13
42169;BME280;27838;43.858;25.974;2023-05-12T05:57:53;101756.97;;;13.84;61.50
42169;BME280;27838;43.858;25.974;2023-05-12T06:00:19;101764.00;;;13.92;61.16
42169;BME280;27838;43.858;25.974;2023-05-12T06:02:46;101771.88;;;13.97;61.34
42169;BME280;27838;43.858;25.974;2023-05-12T06:05:13;101761.41;;;13.97;61.37
42169;BME280;27838;43.858;25.974;2023-05-12T06:07:39;101753.53;;;13.94;61.80
42169;BME280;27838;43.858;25.974;2023-05-12T06:10:06;101766.66;;;14.08;61.58
42169;BME280;27838;43.858;25.974;2023-05-12T06:12:33;101757.03;;;14.10;61.80
42169;BME280;27838;43.858;25.974;2023-05-12T06:15:00;101757.94;;;14.15;61.54
42169;BME280;27838;43.858;25.974;2023-05-12T06:17:26;101760.56;;;14.20;61.48
42169;BME280;27838;43.858;25.974;2023-05-12T06:19:53;101762.31;;;14.27;61.24
42169;BME280;27838;43.858;25.974;2023-05-12T06:22:19;101760.59;;;14.35;61.32
42169;BME280;27838;43.858;25.974;2023-05-12T06:24:46;101760.59;;;14.44;61.21
42169;BME280;27838;43.858;25.974;2023-05-12T06:27:12;101769.34;;;14.49;61.15
42169;BME280;27838;43.858;25.974;2023-05-12T06:29:39;101763.22;;;14.55;60.93
42169;BME280;27838;43.858;25.974;2023-05-12T06:32:06;101761.50;;;14.60;61.28
42169;BME280;27838;43.858;25.974;2023-05-12T06:34:32;101762.38;;;14.67;60.98
42169;BME280;27838;43.858;25.974;2023-05-12T06:36:59;101762.38;;;14.71;60.93
42169;BME280;27838;43.858;25.974;2023-05-12T06:39:25;101760.63;;;14.75;60.81
42169;BME280;27838;43.858;25.974;2023-05-12T06:41:52;101768.50;;;14.77;61.12
42169;BME280;27838;43.858;25.974;2023-05-12T06:44:18;101755.38;;;14.75;60.81
42169;BME280;27838;43.858;25.974;2023-05-12T06:46:45;101752.75;;;14.81;60.64
42169;BME280;27838;43.858;25.974;2023-05-12T06:49:11;101752.75;;;14.87;60.52
42169;BME280;27838;43.858;25.974;2023-05-12T06:51:38;101759.69;;;15.01;60.11
42169;BME280;27838;43.858;25.974;2023-05-12T06:54:05;101758.84;;;15.05;60.05
42169;BME280;27838;43.858;25.974;2023-05-12T06:56:31;101757.94;;;15.15;60.01
42169;BME280;27838;43.858;25.974;2023-05-12T06:58:58;101763.16;;;15.24;59.78
42169;BME280;27838;43.858;25.974;2023-05-12T07:01:30;101767.56;;;15.22;59.25
42169;BME280;27838;43.858;25.974;2023-05-12T07:03:57;101771.03;;;15.27;59.35
42169;BME280;27838;43.858;25.974;2023-05-12T07:06:24;101759.69;;;15.19;58.43
42169;BME280;27838;43.858;25.974;2023-05-12T07:08:52;101763.16;;;15.27;58.17
42169;BME280;27838;43.858;25.974;2023-05-12T07:11:19;101762.28;;;15.32;58.55
42169;BME280;27838;43.858;25.974;2023-05-12T07:13:46;101760.50;;;15.30;57.52
42169;BME280;27838;43.858;25.974;2023-05-12T07:16:13;101765.75;;;15.37;56.49
42169;BME280;27838;43.858;25.974;2023-05-12T07:18:40;101756.16;;;15.23;55.98
42169;BME280;27838;43.858;25.974;2023-05-12T07:21:07;101762.28;;;15.32;56.96
42169;BME280;27838;43.858;25.974;2023-05-12T07:23:35;101756.16;;;15.34;56.83
42169;BME280;27838;43.858;25.974;2023-05-12T07:26:03;101761.41;;;15.28;55.72
42169;BME280;27838;43.858;25.974;2023-05-12T07:28:34;101760.50;;;15.34;54.66
42169;BME280;27838;43.858;25.974;2023-05-12T07:31:04;101766.63;;;15.45;54.92
42169;BME280;27838;43.858;25.974;2023-05-12T07:33:32;101760.44;;;15.52;53.98
42169;BME280;27838;43.858;25.974;2023-05-12T07:36:00;101764.81;;;15.53;53.50
42169;BME280;27838;43.858;25.974;2023-05-12T07:38:26;101759.53;;;15.61;52.91
42169;BME280;27838;43.858;25.974;2023-05-12T07:40:53;101766.50;;;15.66;52.50
42169;BME280;27838;43.858;25.974;2023-05-12T07:43:20;101767.38;;;15.72;51.98
42169;BME280;27838;43.858;25.974;2023-05-12T07:45:46;101768.28;;;15.69;52.93
42169;BME280;27838;43.858;25.974;2023-05-12T07:48:13;101768.25;;;15.75;53.15
42169;BME280;27838;43.858;25.974;2023-05-12T07:50:39;101765.63;;;15.80;53.49
42169;BME280;27838;43.858;25.974;2023-05-12T07:53:06;101764.72;;;15.85;52.07
42169;BME280;27838;43.858;25.974;2023-05-12T07:55:32;101769.03;;;15.94;53.28
42169;BME280;27838;43.858;25.974;2023-05-12T07:57:59;101755.00;;;15.95;52.82
42169;BME280;27838;43.858;25.974;2023-05-12T08:00:26;101762.03;;;15.93;50.51
42169;BME280;27838;43.858;25.974;2023-05-12T08:02:53;101766.41;;;15.96;49.94
42169;BME280;27838;43.858;25.974;2023-05-12T08:05:20;101769.94;;;15.90;48.73
42169;BME280;27838;43.858;25.974;2023-05-12T08:07:46;101755.91;;;15.93;48.93
42169;BME280;27838;43.858;25.974;2023-05-12T08:10:13;101766.41;;;15.91;47.35
42169;BME280;27838;43.858;25.974;2023-05-12T08:12:40;101755.91;;;15.90;47.60
42169;BME280;27838;43.858;25.974;2023-05-12T08:15:07;101768.13;;;15.98;47.84
42169;BME280;27838;43.858;25.974;2023-05-12T08:17:34;101764.63;;;15.99;47.09
42169;BME280;27838;43.858;25.974;2023-05-12T08:20:02;101767.25;;;16.02;47.15
42169;BME280;27838;43.858;25.974;2023-05-12T08:22:29;101763.72;;;16.03;46.89
42169;BME280;27838;43.858;25.974;2023-05-12T08:24:56;101766.28;;;16.13;46.66
42169;BME280;27838;43.858;25.974;2023-05-12T08:27:23;101761.00;;;16.16;45.68
42169;BME280;27838;43.858;25.974;2023-05-12T08:29:49;101760.06;;;16.26;45.91
42169;BME280;27838;43.858;25.974;2023-05-12T08:32:16;101765.25;;;16.35;45.84
42169;BME280;27838;43.858;25.974;2023-05-12T08:34:42;101755.63;;;16.34;45.59
42169;BME280;27838;43.858;25.974;2023-05-12T08:37:09;101761.72;;;16.42;45.03
42169;BME280;27838;43.858;25.974;2023-05-12T08:39:36;101758.16;;;16.50;44.79
42169;BME280;27838;43.858;25.974;2023-05-12T08:42:13;101759.81;;;16.60;44.97
42169;BME280;27838;43.858;25.974;2023-05-12T08:44:44;101764.16;;;16.63;45.15
42169;BME280;27838;43.858;25.974;2023-05-12T08:47:11;101757.94;;;16.74;45.11
42169;BME280;27838;43.858;25.974;2023-05-12T08:49:41;101758.78;;;16.76;44.40
42169;BME280;27838;43.858;25.974;2023-05-12T08:52:11;101757.84;;;16.80;44.73
42169;BME280;27838;43.858;25.974;2023-05-12T08:54:43;101756.16;;;16.75;45.04
42169;BME280;27838;43.858;25.974;2023-05-12T08:57:10;101762.19;;;16.91;45.52
42169;BME280;27838;43.858;25.974;2023-05-12T08:59:37;101762.91;;;17.05;44.36
42169;BME280;27838;43.858;25.974;2023-05-12T09:02:07;101745.38;;;17.06;44.65
42169;BME280;27838;43.858;25.974;2023-05-12T09:04:34;101753.16;;;17.16;44.58
42169;BME280;27838;43.858;25.974;2023-05-12T09:07:03;101746.09;;;17.17;44.87
42169;BME280;27838;43.858;25.974;2023-05-12T09:09:35;101748.72;;;17.20;44.31
42169;BME280;27838;43.858;25.974;2023-05-12T09:12:05;101751.22;;;17.31;43.75
42169;BME280;27838;43.858;25.974;2023-05-12T09:14:37;101741.53;;;17.33;43.62
42169;BME280;27838;43.858;25.974;2023-05-12T09:17:05;101739.75;;;17.35;43.19
42169;BME280;27838;43.858;25.974;2023-05-12T09:19:32;101741.59;;;17.28;42.83
42169;BME280;27838;43.858;25.974;2023-05-12T09:21:59;101737.19;;;17.29;43.67
42169;BME280;27838;43.858;25.974;2023-05-12T09:24:37;101736.28;;;17.31;43.41
42169;BME280;27838;43.858;25.974;2023-05-12T09:27:05;101734.59;;;17.24;43.86
42169;BME280;27838;43.858;25.974;2023-05-12T09:29:32;101728.50;;;17.21;44.25
42169;BME280;27838;43.858;25.974;2023-05-12T09:32:00;101735.66;;;17.11;43.94
42169;BME280;27838;43.858;25.974;2023-05-12T09:34:30;101741.81;;;17.07;43.49
42169;BME280;27838;43.858;25.974;2023-05-12T09:36:58;101741.91;;;16.99;43.61
42169;BME280;27838;43.858;25.974;2023-05-12T09:39:25;101746.31;;;16.98;44.07
42169;BME280;27838;43.858;25.974;2023-05-12T09:41:53;101738.47;;;16.92;44.39
42169;BME280;27838;43.858;25.974;2023-05-12T09:44:20;101734.03;;;16.97;44.86
42169;BME280;27838;43.858;25.974;2023-05-12T09:46:47;101749.78;;;17.02;44.65
42169;BME280;27838;43.858;25.974;2023-05-12T09:49:21;101740.16;;;16.98;43.93
42169;BME280;27838;43.858;25.974;2023-05-12T09:51:54;101738.44;;;16.97;43.41
42169;BME280;27838;43.858;25.974;2023-05-12T09:54:31;101739.41;;;16.87;43.61
42169;BME280;27838;43.858;25.974;2023-05-12T09:57:00;101745.50;;;16.95;44.08
42169;BME280;27838;43.858;25.974;2023-05-12T09:59:31;101741.09;;;16.95;43.86
42169;BME280;27838;43.858;25.974;2023-05-12T10:01:59;101745.44;;;16.98;43.84
42169;BME280;27838;43.858;25.974;2023-05-12T10:04:36;101742.75;;;17.04;43.76
42169;BME280;27838;43.858;25.974;2023-05-12T10:07:08;101747.91;;;17.12;44.17
42169;BME280;27838;43.858;25.974;2023-05-12T10:09:37;101749.72;;;17.08;43.80
42169;BME280;27838;43.858;25.974;2023-05-12T10:12:07;101745.28;;;17.13;43.39
42169;BME280;27838;43.858;25.974;2023-05-12T10:14:34;101742.59;;;17.20;43.56
42169;BME280;27838;43.858;25.974;2023-05-12T10:17:03;101732.91;;;17.20;43.21
42169;BME280;27838;43.858;25.974;2023-05-12T10:19:31;101739.81;;;17.32;43.12
42169;BME280;27838;43.858;25.974;2023-05-12T10:21:59;101732.72;;;17.37;42.96
42169;BME280;27838;43.858;25.974;2023-05-12T10:24:27;101729.16;;;17.38;42.50
42169;BME280;27838;43.858;25.974;2023-05-12T10:26:54;101730.91;;;17.42;42.04
42169;BME280;27838;43.858;25.974;2023-05-12T10:29:22;101734.28;;;17.50;42.03
42169;BME280;27838;43.858;25.974;2023-05-12T10:31:56;101727.34;;;17.43;41.68
42169;BME280;27838;43.858;25.974;2023-05-12T10:34:36;101732.50;;;17.52;41.86
42169;BME280;27838;43.858;25.974;2023-05-12T10:37:04;101729.78;;;17.62;41.89
42169;BME280;27838;43.858;25.974;2023-05-12T10:39:32;101727.94;;;17.68;41.16
42169;BME280;27838;43.858;25.974;2023-05-12T10:42:00;101727.06;;;17.65;40.50
42169;BME280;27838;43.858;25.974;2023-05-12T10:44:29;101718.38;;;17.60;40.48
42169;BME280;27838;43.858;25.974;2023-05-12T10:46:56;101723.59;;;17.63;40.60
42169;BME280;27838;43.858;25.974;2023-05-12T10:49:41;101719.28;;;17.55;40.89
42169;BME280;27838;43.858;25.974;2023-05-12T10:52:10;101725.38;;;17.61;40.78
42169;BME280;27838;43.858;25.974;2023-05-12T10:54:40;101722.75;;;17.59;39.83
42169;BME280;27838;43.858;25.974;2023-05-12T10:57:15;101719.25;;;17.60;39.83
42169;BME280;27838;43.858;25.974;2023-05-12T10:59:48;101727.22;;;17.52;39.00
42169;BME280;27838;43.858;25.974;2023-05-12T11:02:17;101717.63;;;17.50;38.78
42169;BME280;27838;43.858;25.974;2023-05-12T11:04:51;101720.28;;;17.47;39.09
42169;BME280;27838;43.858;25.974;2023-05-12T11:07:30;101723.75;;;17.50;39.37
42169;BME280;27838;43.858;25.974;2023-05-12T11:10:00;101708.84;;;17.48;39.02
42169;BME280;27838;43.858;25.974;2023-05-12T11:12:29;101707.91;;;17.53;38.60
42169;BME280;27838;43.858;25.974;2023-05-12T11:15:02;101708.81;;;17.51;38.71
42169;BME280;27838;43.858;25.974;2023-05-12T11:17:29;101704.38;;;17.54;38.31
42169;BME280;27838;43.858;25.974;2023-05-12T11:19:56;101709.59;;;17.56;38.38
42169;BME280;27838;43.858;25.974;2023-05-12T11:22:23;101713.03;;;17.64;38.42
42169;BME280;27838;43.858;25.974;2023-05-12T11:24:50;101715.66;;;17.64;38.29
42169;BME280;27838;43.858;25.974;2023-05-12T11:27:18;101712.94;;;17.70;38.36
42169;BME280;27838;43.858;25.974;2023-05-12T11:29:58;101713.84;;;17.69;38.28
42169;BME280;27838;43.858;25.974;2023-05-12T11:32:25;101714.69;;;17.70;38.54
42169;BME280;27838;43.858;25.974;2023-05-12T11:34:52;101716.38;;;17.77;38.50
42169;BME280;27838;43.858;25.974;2023-05-12T11:37:18;101716.28;;;17.82;39.17
42169;BME280;27838;43.858;25.974;2023-05-12T11:39:45;101705.72;;;17.83;39.11
42169;BME280;27838;43.858;25.974;2023-05-12T11:42:12;101703.06;;;17.89;38.94
42169;BME280;27838;43.858;25.974;2023-05-12T11:44:48;101710.00;;;17.95;38.81
42169;BME280;27838;43.858;25.974;2023-05-12T11:47:15;101689.91;;;17.83;37.05
42169;BME280;27838;43.858;25.974;2023-05-12T11:52:13;101698.56;;;17.95;37.33
42169;BME280;27838;43.858;25.974;2023-05-12T11:54:50;101701.22;;;17.93;37.08
42169;BME280;27838;43.858;25.974;2023-05-12T11:57:27;101696.72;;;18.00;36.20
42169;BME280;27838;43.858;25.974;2023-05-12T11:59:59;101701.06;;;18.04;36.50
42169;BME280;27838;43.858;25.974;2023-05-12T12:02:26;101700.28;;;17.97;36.13
42169;BME280;27838;43.858;25.974;2023-05-12T12:04:53;101696.03;;;17.88;36.42
42169;BME280;27838;43.858;25.974;2023-05-12T12:07:33;101695.13;;;17.89;35.85
42169;BME280;27838;43.858;25.974;2023-05-12T12:10:16;101689.00;;;17.87;35.89
42169;BME280;27838;43.858;25.974;2023-05-12T12:12:43;101688.03;;;17.95;35.69
42169;BME280;27838;43.858;25.974;2023-05-12T12:15:11;101689.03;;;17.86;35.36
42169;BME280;27838;43.858;25.974;2023-05-12T12:17:38;101680.16;;;17.91;35.72
42169;BME280;27838;43.858;25.974;2023-05-12T12:20:05;101681.03;;;17.90;35.97
42169;BME280;27838;43.858;25.974;2023-05-12T12:22:32;101681.97;;;17.88;35.65
42169;BME280;27838;43.858;25.974;2023-05-12T12:25:00;101685.50;;;17.82;35.47
42169;BME280;27838;43.858;25.974;2023-05-12T12:27:26;101685.50;;;17.87;35.52
42169;BME280;27838;43.858;25.974;2023-05-12T12:29:53;101684.63;;;17.86;35.51
42169;BME280;27838;43.858;25.974;2023-05-12T12:32:19;101674.03;;;17.89;35.61
42169;BME280;27838;43.858;25.974;2023-05-12T12:34:46;101679.34;;;17.88;35.61
42169;BME280;27838;43.858;25.974;2023-05-12T12:37:13;101679.25;;;17.91;35.57
42169;BME280;27838;43.858;25.974;2023-05-12T12:39:40;101672.91;;;18.04;35.94
42169;BME280;27838;43.858;25.974;2023-05-12T12:42:06;101686.03;;;18.09;35.74
42169;BME280;27838;43.858;25.974;2023-05-12T12:44:33;101678.94;;;18.13;35.52
42169;BME280;27838;43.858;25.974;2023-05-12T12:46:59;101670.19;;;18.10;35.77
42169;BME280;27838;43.858;25.974;2023-05-12T12:49:26;101660.38;;;18.17;36.14